createdAt,value
2018-05-29T00:00:59.138Z,99895.13
2018-05-29T00:03:26.529Z,99897.13
2018-05-29T00:05:53.970Z,99896.42
2018-05-29T00:08:21.361Z,99902.34
2018-05-29T00:10:48.735Z,99893.72
2018-05-29T00:13:16.120Z,99887.77
2018-05-29T00:15:43.498Z,99881.73
2018-05-29T00:18:10.881Z,99885.63
2018-05-29T00:20:38.271Z,99880.77
2018-05-29T00:23:05.661Z,99879.08
2018-05-29T00:25:33.046Z,99875.39
2018-05-29T00:28:00.434Z,99868.63
2018-05-29T00:30:27.834Z,99867.73
2018-05-29T00:32:55.215Z,99865.39
2018-05-29T00:35:22.604Z,99854.53
2018-05-29T00:37:49.987Z,99854.42
2018-05-29T00:40:17.367Z,99849.11
2018-05-29T00:42:44.755Z,99847.18
2018-05-29T00:45:12.144Z,99842.98
2018-05-29T00:47:39.573Z,99844.55
2018-05-29T00:50:06.974Z,99839.82
2018-05-29T00:52:34.383Z,99839.23
2018-05-29T00:55:14.050Z,99838.98
2018-05-29T00:57:41.498Z,99844.73
2018-05-29T01:00:08.895Z,99842.63
2018-05-29T01:02:36.291Z,99836.41
2018-05-29T01:05:03.665Z,99837.26
2018-05-29T01:07:31.057Z,99843.30
2018-05-29T01:09:58.452Z,99837.26
2018-05-29T01:12:25.814Z,99843.35
2018-05-29T01:14:53.199Z,99828.67
2018-05-29T01:17:20.588Z,99840.72
2018-05-29T01:19:47.967Z,99837.67
2018-05-29T01:22:15.355Z,99826.97
2018-05-29T01:24:42.735Z,99836.84
2018-05-29T01:27:10.114Z,99830.09
2018-05-29T01:29:37.496Z,99835.30
2018-05-29T01:32:04.883Z,99838.02
2018-05-29T01:34:32.263Z,99834.45
2018-05-29T01:36:59.720Z,99835.80
2018-05-29T01:39:27.122Z,99837.80
2018-05-29T01:41:54.537Z,99845.38
2018-05-29T01:44:21.914Z,99851.53
2018-05-29T01:46:49.570Z,99851.89
2018-05-29T01:49:16.949Z,99867.30
2018-05-29T01:51:44.435Z,99862.15
2018-05-29T01:54:11.807Z,99861.09
2018-05-29T01:56:39.345Z,99860.05
2018-05-29T01:59:06.946Z,99861.64
2018-05-29T02:01:34.509Z,99859.77
2018-05-29T02:04:01.953Z,99871.73
2018-05-29T02:06:29.359Z,99866.44
2018-05-29T02:08:56.723Z,99866.62
2018-05-29T02:11:24.685Z,99865.78
2018-05-29T02:13:52.072Z,99865.23
2018-05-29T02:16:19.439Z,99859.23
2018-05-29T02:18:46.818Z,99868.14
2018-05-29T02:21:14.195Z,99866.66
2018-05-29T02:23:41.589Z,99865.03
2018-05-29T02:26:08.984Z,99868.53
2018-05-29T02:28:36.358Z,99861.89
2018-05-29T02:31:03.748Z,99862.86
2018-05-29T02:33:31.143Z,99864.59
2018-05-29T02:35:58.534Z,99867.91
2018-05-29T02:38:25.923Z,99874.61
2018-05-29T02:40:53.373Z,99876.47
2018-05-29T02:43:20.782Z,99873.04
2018-05-29T02:45:48.159Z,99866.92
2018-05-29T02:48:15.554Z,99859.13
2018-05-29T02:50:42.939Z,99861.27
2018-05-29T02:53:10.326Z,99864.02
2018-05-29T02:55:37.719Z,99859.64
2018-05-29T02:58:05.119Z,99862.14
2018-05-29T03:00:32.494Z,99864.84
2018-05-29T03:02:59.888Z,99869.79
2018-05-29T03:05:27.270Z,99866.97
2018-05-29T03:07:55.007Z,99858.47
2018-05-29T03:10:22.367Z,99861.82
2018-05-29T03:12:49.766Z,99863.16
2018-05-29T03:15:17.146Z,99866.73
2018-05-29T03:17:44.555Z,99860.23
2018-05-29T03:20:11.943Z,99860.09
2018-05-29T03:22:40.144Z,99860.49
2018-05-29T03:25:07.535Z,99858.03
2018-05-29T03:27:34.927Z,99862.94
2018-05-29T03:30:02.318Z,99864.57
2018-05-29T03:32:29.706Z,99868.22
2018-05-29T03:34:57.089Z,99882.91
2018-05-29T03:37:25.085Z,99892.62
2018-05-29T03:39:52.488Z,99907.10
2018-05-29T03:42:19.866Z,99902.32
2018-05-29T03:44:47.238Z,99903.34
2018-05-29T03:47:14.627Z,99908.60
2018-05-29T03:49:42.010Z,99905.80
2018-05-29T03:52:09.755Z,99892.34
2018-05-29T03:54:37.187Z,99897.40
2018-05-29T03:57:04.571Z,99888.66
2018-05-29T03:59:31.967Z,99895.19
2018-05-29T04:01:59.351Z,99887.10
2018-05-29T04:04:26.897Z,99890.05
2018-05-29T04:06:55.302Z,99891.11
2018-05-29T04:09:22.719Z,99899.36
2018-05-29T04:11:50.082Z,99893.06
2018-05-29T04:14:17.523Z,99896.34
2018-05-29T04:16:44.911Z,99895.46
2018-05-29T04:19:12.295Z,99896.27
2018-05-29T04:21:39.688Z,99901.22
2018-05-29T04:24:07.075Z,99908.55
2018-05-29T04:26:34.461Z,99909.70
2018-05-29T04:29:01.863Z,99902.41
2018-05-29T04:31:30.199Z,99896.59
2018-05-29T04:33:57.578Z,99895.53
2018-05-29T04:36:25.470Z,99897.07
2018-05-29T04:38:52.854Z,99904.06
2018-05-29T04:41:20.232Z,99905.20
2018-05-29T04:43:47.626Z,99910.22
2018-05-29T04:46:15.020Z,99910.96
2018-05-29T04:48:42.417Z,99906.84
2018-05-29T04:51:09.800Z,99911.50
2018-05-29T04:53:37.258Z,99914.32
2018-05-29T04:56:04.629Z,99915.20
2018-05-29T04:58:32.031Z,99912.88
2018-05-29T05:00:59.416Z,99918.55
2018-05-29T05:03:26.802Z,99914.46
2018-05-29T05:05:54.243Z,99910.20
2018-05-29T05:08:21.643Z,99912.23
2018-05-29T05:10:49.036Z,99910.24
2018-05-29T05:13:16.444Z,99903.93
2018-05-29T05:15:43.807Z,99901.19
2018-05-29T05:18:11.221Z,99911.05
2018-05-29T05:20:38.599Z,99906.33
2018-05-29T05:23:05.987Z,99903.25
2018-05-29T05:25:33.402Z,99901.97
2018-05-29T05:28:00.787Z,99900.34
2018-05-29T05:30:28.182Z,99901.66
2018-05-29T05:32:55.659Z,99910.92
2018-05-29T05:35:23.211Z,99911.04
2018-05-29T05:37:50.587Z,99909.08
2018-05-29T05:40:17.983Z,99907.66
2018-05-29T05:42:45.371Z,99899.73
2018-05-29T05:45:12.760Z,99907.27
2018-05-29T05:47:40.536Z,99913.08
2018-05-29T05:50:07.927Z,99913.24
2018-05-29T05:52:35.394Z,99910.66
2018-05-29T05:55:02.781Z,99913.27
2018-05-29T05:57:30.166Z,99913.09
2018-05-29T05:59:57.563Z,99922.65
2018-05-29T06:02:25.857Z,99920.33
2018-05-29T06:04:53.244Z,99923.08
2018-05-29T06:07:20.623Z,99929.02
2018-05-29T06:09:48.013Z,99923.97
2018-05-29T06:12:15.399Z,99927.02
2018-05-29T06:14:42.802Z,99929.62
2018-05-29T06:17:10.204Z,99924.45
2018-05-29T06:19:37.592Z,99923.28
2018-05-29T06:22:04.972Z,99923.06
2018-05-29T06:24:32.371Z,99930.73
2018-05-29T06:26:59.755Z,99916.42
2018-05-29T06:29:27.145Z,99918.05
2018-05-29T06:31:54.522Z,99918.44
2018-05-29T06:34:21.926Z,99909.05
2018-05-29T06:36:49.299Z,99908.77
2018-05-29T06:39:16.699Z,99900.07
2018-05-29T06:41:44.331Z,99907.20
2018-05-29T06:44:11.943Z,99910.28
2018-05-29T06:46:39.576Z,99906.44
2018-05-29T06:49:06.968Z,99910.11
2018-05-29T06:51:34.351Z,99911.55
2018-05-29T06:54:01.755Z,99911.13
2018-05-29T06:56:29.135Z,99913.38
2018-05-29T06:58:56.527Z,99915.94
2018-05-29T07:01:23.916Z,99927.67
2018-05-29T07:03:51.303Z,99929.28
2018-05-29T07:06:18.691Z,99916.48
2018-05-29T07:08:46.171Z,99908.31
2018-05-29T07:11:13.543Z,99901.49
2018-05-29T07:13:40.931Z,99901.09
2018-05-29T07:16:08.318Z,99909.63
2018-05-29T07:18:35.709Z,99909.11
2018-05-29T07:21:03.097Z,99900.61
2018-05-29T07:23:30.487Z,99898.09
2018-05-29T07:25:58.463Z,99894.28
2018-05-29T07:28:26.383Z,99896.05
2018-05-29T07:30:53.772Z,99894.84
2018-05-29T07:33:21.159Z,99888.95
2018-05-29T07:35:48.548Z,99886.34
2018-05-29T07:38:15.931Z,99894.20
2018-05-29T07:40:43.327Z,99889.11
2018-05-29T07:43:10.703Z,99882.72
2018-05-29T07:45:38.115Z,99889.41
2018-05-29T07:48:05.492Z,99889.45
2018-05-29T07:50:32.888Z,99893.59
2018-05-29T07:53:00.274Z,99889.69
2018-05-29T07:55:27.659Z,99884.85
2018-05-29T07:57:55.042Z,99881.11
2018-05-29T08:00:22.435Z,99885.35
2018-05-29T08:02:49.834Z,99883.98
2018-05-29T08:05:17.290Z,99869.30
2018-05-29T08:07:44.669Z,99875.47
2018-05-29T08:10:12.081Z,99867.73
2018-05-29T08:12:39.795Z,99876.66
2018-05-29T08:15:07.191Z,99878.17
2018-05-29T08:17:34.580Z,99870.02
2018-05-29T08:20:01.991Z,99871.63
2018-05-29T08:22:29.374Z,99880.94
2018-05-29T08:24:58.725Z,99877.15
2018-05-29T08:27:26.679Z,99873.75
2018-05-29T08:29:54.242Z,99869.41
2018-05-29T08:32:21.628Z,99872.47
2018-05-29T08:34:49.019Z,99884.69
2018-05-29T08:37:16.443Z,99878.59
2018-05-29T08:39:43.892Z,99866.91
2018-05-29T08:42:11.226Z,99865.51
2018-05-29T08:44:38.611Z,99870.97
2018-05-29T08:47:06.008Z,99868.16
2018-05-29T08:49:33.396Z,99878.00
2018-05-29T08:52:00.791Z,99878.48
2018-05-29T08:54:29.184Z,99879.26
2018-05-29T08:56:56.816Z,99874.68
2018-05-29T08:59:24.215Z,99877.80
2018-05-29T09:01:51.598Z,99874.60
2018-05-29T09:04:19.118Z,99867.16
2018-05-29T09:06:46.393Z,99868.00
2018-05-29T09:09:13.786Z,99870.52
2018-05-29T09:11:41.183Z,99861.17
2018-05-29T09:14:08.560Z,99856.45
2018-05-29T09:16:35.963Z,99853.38
2018-05-29T09:19:03.358Z,99849.13
2018-05-29T09:21:30.761Z,99851.23
2018-05-29T09:23:58.126Z,99851.69
2018-05-29T09:26:25.521Z,99848.54
2018-05-29T09:28:52.995Z,99849.56
2018-05-29T09:31:20.390Z,99840.87
2018-05-29T09:33:47.771Z,99842.17
2018-05-29T09:36:15.173Z,99845.11
2018-05-29T09:38:42.559Z,99846.03
2018-05-29T09:41:09.957Z,99859.14
2018-05-29T09:43:37.339Z,99864.71
2018-05-29T09:46:04.901Z,99846.74
2018-05-29T09:48:32.282Z,99855.78
2018-05-29T09:50:59.780Z,99846.76
2018-05-29T09:53:27.165Z,99851.64
2018-05-29T09:55:55.231Z,99841.37
2018-05-29T09:58:22.625Z,99855.50
2018-05-29T10:00:49.997Z,99846.83
2018-05-29T10:03:17.426Z,99845.27
2018-05-29T10:05:44.797Z,99857.23
2018-05-29T10:08:12.199Z,99842.46
2018-05-29T10:10:39.570Z,99846.95
2018-05-29T10:13:06.973Z,99836.14
2018-05-29T10:15:34.359Z,99840.44
2018-05-29T10:18:01.755Z,99845.56
2018-05-29T10:20:29.136Z,99860.66
2018-05-29T10:22:57.237Z,99858.70
2018-05-29T10:25:24.619Z,99843.53
2018-05-29T10:27:52.499Z,99846.37
2018-05-29T10:30:19.891Z,99843.45
2018-05-29T10:32:47.293Z,99853.82
2018-05-29T10:35:14.680Z,99841.99
2018-05-29T10:37:42.059Z,99840.75
2018-05-29T10:40:09.453Z,99842.44
2018-05-29T10:42:36.849Z,99831.99
2018-05-29T10:45:04.235Z,99843.02
2018-05-29T10:47:31.671Z,99847.30
2018-05-29T10:49:59.076Z,99844.88
2018-05-29T10:52:27.409Z,99839.78
2018-05-29T10:54:54.752Z,99840.20
2018-05-29T10:57:22.143Z,99845.78
2018-05-29T10:59:49.533Z,99837.67
2018-05-29T11:02:16.920Z,99854.97
2018-05-29T11:04:44.363Z,99840.36
2018-05-29T11:07:11.794Z,99847.65
2018-05-29T11:09:39.184Z,99841.83
2018-05-29T11:12:06.594Z,99844.11
2018-05-29T11:14:33.969Z,99847.44
2018-05-29T11:17:01.373Z,99850.11
2018-05-29T11:19:28.756Z,99842.34
2018-05-29T11:24:25.152Z,99845.46
2018-05-29T11:26:52.658Z,99843.69
2018-05-29T11:29:20.057Z,99834.95
2018-05-29T11:31:47.478Z,99843.89
2018-05-29T11:34:14.866Z,99835.36
2018-05-29T11:36:42.265Z,99836.68
2018-05-29T11:39:09.987Z,99828.09
2018-05-29T11:41:37.372Z,99826.20
2018-05-29T11:44:04.890Z,99824.70
2018-05-29T11:46:32.281Z,99847.45
2018-05-29T11:48:59.672Z,99836.11
2018-05-29T11:51:27.715Z,99823.05
2018-05-29T11:53:55.115Z,99822.91
2018-05-29T11:56:22.499Z,99817.28
2018-05-29T11:58:49.898Z,99823.35
2018-05-29T12:01:17.282Z,99817.75
2018-05-29T12:03:44.675Z,99816.13
2018-05-29T12:06:12.059Z,99822.89
2018-05-29T12:08:39.452Z,99814.18
2018-05-29T12:11:06.851Z,99802.92
2018-05-29T12:13:34.237Z,99802.09
2018-05-29T12:16:01.629Z,99794.84
2018-05-29T12:18:29.025Z,99783.98
2018-05-29T12:20:56.411Z,99807.92
2018-05-29T12:23:23.799Z,99787.27
2018-05-29T12:25:51.183Z,99803.48
2018-05-29T12:28:19.601Z,99777.16
2018-05-29T12:30:46.959Z,99779.53
2018-05-29T12:33:14.340Z,99790.70
2018-05-29T12:35:41.727Z,99772.45
2018-05-29T12:38:09.102Z,99781.80
2018-05-29T12:40:36.489Z,99775.28
2018-05-29T12:43:03.879Z,99773.92
2018-05-29T12:45:31.275Z,99770.25
2018-05-29T12:47:58.669Z,99774.73
2018-05-29T12:50:26.065Z,99802.29
2018-05-29T12:52:53.437Z,99794.09
2018-05-29T12:55:20.831Z,99801.86
2018-05-29T12:57:48.261Z,99785.36
2018-05-29T13:00:15.677Z,99787.44
2018-05-29T13:02:43.051Z,99804.95
2018-05-29T13:05:10.451Z,99788.37
2018-05-29T13:07:37.830Z,99792.45
2018-05-29T13:10:05.231Z,99806.84
2018-05-29T13:12:32.614Z,99792.78
2018-05-29T13:15:00.008Z,99797.88
2018-05-29T13:17:27.949Z,99795.70
2018-05-29T13:19:55.358Z,99800.16
2018-05-29T13:22:22.731Z,99784.59
2018-05-29T13:24:50.128Z,99791.12
2018-05-29T13:27:17.516Z,99794.22
2018-05-29T13:29:44.921Z,99784.37
2018-05-29T13:32:12.286Z,99788.00
2018-05-29T13:34:39.687Z,99789.08
2018-05-29T13:37:07.074Z,99792.62
2018-05-29T13:39:34.459Z,99790.64
2018-05-29T13:42:01.844Z,99797.04
2018-05-29T13:44:29.344Z,99782.16
2018-05-29T13:46:56.732Z,99791.38
2018-05-29T13:49:24.106Z,99788.08
2018-05-29T13:51:51.488Z,99789.34
2018-05-29T13:54:18.873Z,99809.72
2018-05-29T13:56:46.257Z,99806.44
2018-05-29T13:59:13.630Z,99804.64
2018-05-29T14:01:41.010Z,99813.13
2018-05-29T14:04:08.386Z,99810.27
2018-05-29T14:06:35.777Z,99808.17
2018-05-29T14:09:03.242Z,99807.16
2018-05-29T14:11:30.595Z,99795.64
2018-05-29T14:13:58.253Z,99791.48
2018-05-29T14:16:25.643Z,99791.24
2018-05-29T14:18:53.371Z,99796.41
2018-05-29T14:21:20.769Z,99781.63
2018-05-29T14:23:48.164Z,99785.63
2018-05-29T14:26:15.548Z,99776.39
2018-05-29T14:28:42.915Z,99787.77
2018-05-29T14:31:10.312Z,99780.65
2018-05-29T14:33:37.679Z,99772.84
2018-05-29T14:36:05.064Z,99779.34
2018-05-29T14:38:32.489Z,99772.66
2018-05-29T14:40:59.826Z,99774.09
2018-05-29T14:43:27.196Z,99789.86
2018-05-29T14:45:54.589Z,99777.08
2018-05-29T14:48:21.958Z,99781.93
2018-05-29T14:50:49.327Z,99783.62
2018-05-29T14:53:16.707Z,99777.20
2018-05-29T14:55:44.100Z,99778.20
2018-05-29T14:58:11.492Z,99782.59
2018-05-29T15:00:38.875Z,99785.09
2018-05-29T15:03:06.258Z,99791.32
2018-05-29T15:05:33.635Z,99790.17
2018-05-29T15:08:01.024Z,99798.94
2018-05-29T15:10:28.911Z,99789.09
2018-05-29T15:12:56.303Z,99792.52
2018-05-29T15:15:23.703Z,99789.73
2018-05-29T15:17:52.207Z,99789.92
2018-05-29T15:20:19.577Z,99791.47
2018-05-29T15:22:46.958Z,99801.93
2018-05-29T15:25:14.337Z,99791.13
2018-05-29T15:27:41.759Z,99787.87
2018-05-29T15:30:09.135Z,99790.31
2018-05-29T15:32:36.523Z,99794.27
2018-05-29T15:35:03.899Z,99784.13
2018-05-29T15:37:31.323Z,99782.00
2018-05-29T15:39:58.683Z,99787.34
2018-05-29T15:42:26.067Z,99782.23
2018-05-29T15:44:53.435Z,99763.84
2018-05-29T15:47:20.826Z,99791.80
2018-05-29T15:49:48.207Z,99785.08
2018-05-29T15:52:15.653Z,99775.66
2018-05-29T15:54:42.962Z,99775.98
2018-05-29T15:57:10.350Z,99767.17
2018-05-29T15:59:37.740Z,99777.89
2018-05-29T16:02:05.431Z,99784.86
2018-05-29T16:04:32.829Z,99786.13
2018-05-29T16:07:00.235Z,99787.85
2018-05-29T16:09:27.626Z,99790.82
2018-05-29T16:11:55.014Z,99784.23
2018-05-29T16:14:22.473Z,99780.59
2018-05-29T16:16:49.807Z,99781.09
2018-05-29T16:19:17.199Z,99771.74
2018-05-29T16:21:44.587Z,99774.80
2018-05-29T16:24:11.970Z,99774.98
2018-05-29T16:26:39.424Z,99769.53
2018-05-29T16:29:06.753Z,99771.42
2018-05-29T16:31:34.127Z,99770.91
2018-05-29T16:34:01.505Z,99779.58
2018-05-29T16:36:28.904Z,99767.72
2018-05-29T16:38:56.321Z,99776.67
2018-05-29T16:41:23.701Z,99777.33
2018-05-29T16:43:51.091Z,99774.82
2018-05-29T16:46:18.468Z,99774.92
2018-05-29T16:48:45.875Z,99772.27
2018-05-29T16:51:13.269Z,99765.94
2018-05-29T16:53:40.648Z,99781.03
2018-05-29T16:56:08.055Z,99770.93
2018-05-29T16:58:35.413Z,99781.77
2018-05-29T17:01:02.840Z,99776.03
2018-05-29T17:03:30.214Z,99788.01
2018-05-29T17:05:57.604Z,99794.70
2018-05-29T17:08:24.992Z,99797.58
2018-05-29T17:10:52.383Z,99806.59
2018-05-29T17:13:19.770Z,99803.96
2018-05-29T17:15:47.233Z,99807.97
2018-05-29T17:18:14.615Z,99821.50
2018-05-29T17:20:42.002Z,99809.13
2018-05-29T17:23:09.391Z,99813.03
2018-05-29T17:25:36.770Z,99805.09
2018-05-29T17:28:04.159Z,99794.84
2018-05-29T17:30:31.543Z,99785.17
2018-05-29T17:32:59.203Z,99792.14
2018-05-29T17:35:26.891Z,99801.55
2018-05-29T17:37:54.281Z,99820.95
2018-05-29T17:40:21.682Z,99816.56
2018-05-29T17:42:49.054Z,99809.89
2018-05-29T17:45:16.450Z,99806.37
2018-05-29T17:47:43.831Z,99805.48
2018-05-29T17:50:11.207Z,99804.24
2018-05-29T17:52:39.502Z,99803.94
2018-05-29T17:55:06.896Z,99819.89
2018-05-29T17:57:34.282Z,99808.52
2018-05-29T18:00:01.666Z,99803.07
2018-05-29T18:02:29.257Z,99810.16
2018-05-29T18:04:56.632Z,99806.05
2018-05-29T18:07:24.174Z,99826.41
2018-05-29T18:09:51.546Z,99817.66
2018-05-29T18:12:18.940Z,99821.14
2018-05-29T18:14:46.374Z,99836.03
2018-05-29T18:17:13.752Z,99836.95
2018-05-29T18:19:41.137Z,99834.92
2018-05-29T18:22:08.556Z,99832.40
2018-05-29T18:24:35.912Z,99835.55
2018-05-29T18:27:03.295Z,99831.73
2018-05-29T18:29:30.664Z,99833.06
2018-05-29T18:31:58.183Z,99844.88
2018-05-29T18:34:25.560Z,99845.59
2018-05-29T18:36:52.956Z,99847.19
2018-05-29T18:39:20.340Z,99853.30
2018-05-29T18:41:47.724Z,99852.90
2018-05-29T18:44:15.102Z,99848.96
2018-05-29T18:46:42.495Z,99846.15
2018-05-29T18:49:09.953Z,99843.34
2018-05-29T18:51:37.302Z,99844.70
2018-05-29T18:54:04.696Z,99845.14
2018-05-29T18:56:32.073Z,99841.87
2018-05-29T18:58:59.464Z,99841.41
2018-05-29T19:01:26.851Z,99838.71
2018-05-29T19:03:54.258Z,99838.06
2018-05-29T19:06:21.660Z,99846.86
2018-05-29T19:08:49.043Z,99847.73
2018-05-29T19:11:16.446Z,99849.25
2018-05-29T19:13:43.846Z,99843.73
2018-05-29T19:16:11.571Z,99852.66
2018-05-29T19:18:38.986Z,99851.35
2018-05-29T19:21:06.363Z,99852.16
2018-05-29T19:23:33.765Z,99851.20
2018-05-29T19:26:01.143Z,99856.78
2018-05-29T19:28:29.578Z,99853.67
2018-05-29T19:30:57.061Z,99860.31
2018-05-29T19:33:24.433Z,99864.45
2018-05-29T19:35:51.798Z,99860.39
2018-05-29T19:38:19.186Z,99852.16
2018-05-29T19:40:46.586Z,99856.55
2018-05-29T19:43:14.031Z,99853.88
2018-05-29T19:45:41.425Z,99858.81
2018-05-29T19:48:08.814Z,99852.84
2018-05-29T19:50:36.251Z,99856.49
2018-05-29T19:53:03.983Z,99854.13
2018-05-29T19:55:31.373Z,99856.97
2018-05-29T19:57:59.716Z,99862.86
2018-05-29T20:00:27.776Z,99869.64
2018-05-29T20:02:55.199Z,99869.55
2018-05-29T20:05:22.584Z,99868.86
2018-05-29T20:07:49.976Z,99873.03
2018-05-29T20:10:17.355Z,99872.80
2018-05-29T20:12:44.757Z,99871.07
2018-05-29T20:15:12.131Z,99870.02
2018-05-29T20:17:39.519Z,99870.91
2018-05-29T20:20:06.943Z,99862.11
2018-05-29T20:22:34.302Z,99869.41
2018-05-29T20:25:01.679Z,99867.56
2018-05-29T20:27:30.515Z,99869.36
2018-05-29T20:29:57.913Z,99857.52
2018-05-29T20:32:25.294Z,99862.69
2018-05-29T20:34:52.675Z,99862.16
2018-05-29T20:37:20.072Z,99853.91
2018-05-29T20:39:47.471Z,99858.94
2018-05-29T20:42:14.852Z,99858.27
2018-05-29T20:44:42.237Z,99858.69
2018-05-29T20:47:09.630Z,99850.03
2018-05-29T20:49:37.024Z,99860.32
2018-05-29T20:52:04.403Z,99846.33
2018-05-29T20:54:31.789Z,99851.41
2018-05-29T20:56:59.965Z,99849.82
2018-05-29T20:59:27.356Z,99846.53
2018-05-29T21:01:55.484Z,99843.71
2018-05-29T21:04:22.875Z,99851.48
2018-05-29T21:06:50.253Z,99851.88
2018-05-29T21:09:17.637Z,99841.14
2018-05-29T21:11:45.034Z,99843.45
2018-05-29T21:14:12.420Z,99846.28
2018-05-29T21:16:39.801Z,99856.52
2018-05-29T21:19:07.183Z,99857.80
2018-05-29T21:21:34.902Z,99854.00
2018-05-29T21:24:02.292Z,99862.66
2018-05-29T21:26:30.227Z,99869.78
2018-05-29T21:28:57.605Z,99871.50
2018-05-29T21:31:24.983Z,99876.97
2018-05-29T21:33:52.393Z,99874.39
2018-05-29T21:36:19.773Z,99881.41
2018-05-29T21:38:47.154Z,99875.70
2018-05-29T21:41:14.543Z,99880.00
2018-05-29T21:43:41.923Z,99888.61
2018-05-29T21:46:09.307Z,99890.73
2018-05-29T21:48:36.705Z,99889.24
2018-05-29T21:51:04.066Z,99898.86
2018-05-29T21:53:31.506Z,99898.55
2018-05-29T21:55:58.830Z,99901.50
2018-05-29T21:58:26.217Z,99906.78
2018-05-29T22:00:53.619Z,99903.27
2018-05-29T22:03:21.004Z,99905.90
2018-05-29T22:05:48.384Z,99900.77
2018-05-29T22:08:15.762Z,99905.11
2018-05-29T22:10:43.142Z,99902.09
2018-05-29T22:13:10.522Z,99909.55
2018-05-29T22:15:37.912Z,99902.34
2018-05-29T22:18:05.291Z,99908.45
2018-05-29T22:20:32.674Z,99912.95
2018-05-29T22:23:00.408Z,99905.67
2018-05-29T22:25:27.790Z,99906.47
2018-05-29T22:27:56.150Z,99912.58
2018-05-29T22:30:23.623Z,99913.92
2018-05-29T22:32:50.961Z,99916.08
2018-05-29T22:35:18.348Z,99915.27
2018-05-29T22:37:45.736Z,99917.00
2018-05-29T22:40:13.139Z,99917.67
2018-05-29T22:42:40.540Z,99918.67
2018-05-29T22:45:07.930Z,99922.09
2018-05-29T22:47:35.533Z,99920.02
2018-05-29T22:50:02.910Z,99919.53
2018-05-29T22:52:30.598Z,99920.02
2018-05-29T22:54:58.004Z,99920.86
2018-05-29T22:57:25.385Z,99919.09
2018-05-29T22:59:52.766Z,99917.89
2018-05-29T23:02:20.155Z,99916.16
2018-05-29T23:04:47.550Z,99918.03
2018-05-29T23:07:14.929Z,99922.84
2018-05-29T23:09:42.335Z,99931.93
2018-05-29T23:12:09.727Z,99931.94
2018-05-29T23:14:37.144Z,99930.28
2018-05-29T23:17:04.539Z,99929.03
2018-05-29T23:19:31.943Z,99930.75
2018-05-29T23:21:59.331Z,99938.95
2018-05-29T23:24:26.724Z,99932.03
2018-05-29T23:26:54.127Z,99938.95
2018-05-29T23:29:21.519Z,99941.55
2018-05-29T23:31:48.905Z,99942.41
2018-05-29T23:34:16.300Z,99947.16
2018-05-29T23:36:43.691Z,99950.61
2018-05-29T23:39:11.076Z,99949.27
2018-05-29T23:41:38.474Z,99954.54
2018-05-29T23:44:05.867Z,99951.49
2018-05-29T23:46:33.259Z,99948.05
2018-05-29T23:49:00.967Z,99951.11
2018-05-29T23:51:28.323Z,99960.17
2018-05-29T23:53:55.725Z,99965.79
2018-05-29T23:56:23.105Z,99964.50
2018-05-29T23:58:50.724Z,99967.07
